sensor_id;sensor_type;location;lat;lon;timestamp;P1;durP1;ratioP1;P2;durP2;ratioP2
81546;SDS011;71078;48.358;10.960;2023-08-20T00:01:50;9.85;;;4.85;;
81546;SDS011;71078;48.358;10.960;2023-08-20T00:04:17;9.90;;;4.75;;
81546;SDS011;71078;48.358;10.960;2023-08-20T00:06:38;10.52;;;5.28;;
81546;SDS011;71078;48.358;10.960;2023-08-20T00:09:00;9.07;;;4.63;;
81546;SDS011;71078;48.358;10.960;2023-08-20T00:11:21;8.60;;;4.80;;
81546;SDS011;71078;48.358;10.960;2023-08-20T00:13:41;8.35;;;4.07;;
81546;SDS011;71078;48.358;10.960;2023-08-20T00:16:02;10.13;;;5.25;;
81546;SDS011;71078;48.358;10.960;2023-08-20T00:18:23;9.40;;;4.60;;
81546;SDS011;71078;48.358;10.960;2023-08-20T00:20:45;10.10;;;5.15;;
81546;SDS011;71078;48.358;10.960;2023-08-20T00:23:06;9.27;;;4.45;;
81546;SDS011;71078;48.358;10.960;2023-08-20T00:25:26;10.63;;;4.80;;
81546;SDS011;71078;48.358;10.960;2023-08-20T00:27:47;8.73;;;4.47;;
81546;SDS011;71078;48.358;10.960;2023-08-20T00:30:08;9.90;;;4.57;;
81546;SDS011;71078;48.358;10.960;2023-08-20T00:32:32;8.55;;;4.85;;
81546;SDS011;71078;48.358;10.960;2023-08-20T00:34:53;9.98;;;5.35;;
81546;SDS011;71078;48.358;10.960;2023-08-20T00:37:13;11.23;;;5.32;;
81546;SDS011;71078;48.358;10.960;2023-08-20T00:39:34;11.82;;;5.20;;
81546;SDS011;71078;48.358;10.960;2023-08-20T00:41:55;10.82;;;4.63;;
81546;SDS011;71078;48.358;10.960;2023-08-20T00:44:15;10.80;;;5.53;;
81546;SDS011;71078;48.358;10.960;2023-08-20T00:46:36;9.68;;;4.82;;
81546;SDS011;71078;48.358;10.960;2023-08-20T00:48:56;11.52;;;5.38;;
81546;SDS011;71078;48.358;10.960;2023-08-20T00:51:18;11.57;;;5.38;;
81546;SDS011;71078;48.358;10.960;2023-08-20T00:53:38;11.13;;;4.47;;
81546;SDS011;71078;48.358;10.960;2023-08-20T00:55:59;10.20;;;5.07;;
81546;SDS011;71078;48.358;10.960;2023-08-20T00:58:20;8.85;;;4.53;;
81546;SDS011;71078;48.358;10.960;2023-08-20T01:00:40;9.98;;;4.90;;
81546;SDS011;71078;48.358;10.960;2023-08-20T01:03:01;8.82;;;4.25;;
81546;SDS011;71078;48.358;10.960;2023-08-20T01:05:22;7.70;;;4.55;;
81546;SDS011;71078;48.358;10.960;2023-08-20T01:07:57;9.25;;;3.90;;
81546;SDS011;71078;48.358;10.960;2023-08-20T01:13:15;8.55;;;4.55;;
81546;SDS011;71078;48.358;10.960;2023-08-20T01:15:36;9.43;;;5.00;;
81546;SDS011;71078;48.358;10.960;2023-08-20T01:17:57;8.07;;;3.80;;
81546;SDS011;71078;48.358;10.960;2023-08-20T01:20:17;9.80;;;5.55;;
81546;SDS011;71078;48.358;10.960;2023-08-20T01:28:27;9.27;;;5.13;;
81546;SDS011;71078;48.358;10.960;2023-08-20T01:30:49;10.50;;;5.07;;
81546;SDS011;71078;48.358;10.960;2023-08-20T01:33:11;10.32;;;5.15;;
81546;SDS011;71078;48.358;10.960;2023-08-20T01:35:32;11.07;;;5.00;;
81546;SDS011;71078;48.358;10.960;2023-08-20T01:37:53;9.32;;;4.80;;
81546;SDS011;71078;48.358;10.960;2023-08-20T01:40:14;10.75;;;5.53;;
81546;SDS011;71078;48.358;10.960;2023-08-20T01:42:34;11.18;;;5.65;;
81546;SDS011;71078;48.358;10.960;2023-08-20T01:44:55;9.68;;;4.30;;
81546;SDS011;71078;48.358;10.960;2023-08-20T01:47:16;10.93;;;5.68;;
81546;SDS011;71078;48.358;10.960;2023-08-20T01:49:36;9.05;;;4.63;;
81546;SDS011;71078;48.358;10.960;2023-08-20T01:51:57;9.57;;;4.70;;
81546;SDS011;71078;48.358;10.960;2023-08-20T01:54:18;10.43;;;4.60;;
81546;SDS011;71078;48.358;10.960;2023-08-20T01:56:38;8.13;;;4.50;;
81546;SDS011;71078;48.358;10.960;2023-08-20T01:58:59;8.05;;;3.80;;
81546;SDS011;71078;48.358;10.960;2023-08-20T02:01:19;9.77;;;4.32;;
81546;SDS011;71078;48.358;10.960;2023-08-20T02:03:40;9.15;;;4.50;;
81546;SDS011;71078;48.358;10.960;2023-08-20T02:06:01;10.02;;;4.47;;
81546;SDS011;71078;48.358;10.960;2023-08-20T02:08:21;7.55;;;4.45;;
81546;SDS011;71078;48.358;10.960;2023-08-20T02:10:42;9.27;;;5.68;;
81546;SDS011;71078;48.358;10.960;2023-08-20T02:13:03;8.57;;;4.38;;
81546;SDS011;71078;48.358;10.960;2023-08-20T02:15:24;8.55;;;4.38;;
81546;SDS011;71078;48.358;10.960;2023-08-20T02:17:45;9.45;;;5.25;;
81546;SDS011;71078;48.358;10.960;2023-08-20T02:20:05;7.90;;;4.75;;
81546;SDS011;71078;48.358;10.960;2023-08-20T02:22:30;10.55;;;4.47;;
81546;SDS011;71078;48.358;10.960;2023-08-20T02:24:50;9.05;;;4.35;;
81546;SDS011;71078;48.358;10.960;2023-08-20T02:27:10;9.43;;;4.85;;
81546;SDS011;71078;48.358;10.960;2023-08-20T02:29:31;9.20;;;4.18;;
81546;SDS011;71078;48.358;10.960;2023-08-20T02:31:51;8.07;;;4.95;;
81546;SDS011;71078;48.358;10.960;2023-08-20T02:34:12;8.95;;;4.55;;
81546;SDS011;71078;48.358;10.960;2023-08-20T02:36:32;8.18;;;4.00;;
81546;SDS011;71078;48.358;10.960;2023-08-20T02:38:53;9.50;;;4.25;;
81546;SDS011;71078;48.358;10.960;2023-08-20T02:41:14;8.73;;;3.85;;
81546;SDS011;71078;48.358;10.960;2023-08-20T02:43:35;12.20;;;4.43;;
81546;SDS011;71078;48.358;10.960;2023-08-20T02:45:55;9.20;;;3.92;;
81546;SDS011;71078;48.358;10.960;2023-08-20T02:48:17;8.80;;;4.38;;
81546;SDS011;71078;48.358;10.960;2023-08-20T02:50:38;8.82;;;4.30;;
81546;SDS011;71078;48.358;10.960;2023-08-20T02:52:58;7.82;;;4.20;;
81546;SDS011;71078;48.358;10.960;2023-08-20T02:55:19;8.43;;;4.10;;
81546;SDS011;71078;48.358;10.960;2023-08-20T02:57:39;9.77;;;4.70;;
81546;SDS011;71078;48.358;10.960;2023-08-20T03:00:00;7.25;;;4.10;;
81546;SDS011;71078;48.358;10.960;2023-08-20T03:02:20;8.30;;;4.30;;
81546;SDS011;71078;48.358;10.960;2023-08-20T03:04:41;8.70;;;3.97;;
81546;SDS011;71078;48.358;10.960;2023-08-20T03:07:01;9.55;;;4.30;;
81546;SDS011;71078;48.358;10.960;2023-08-20T03:09:22;9.55;;;4.60;;
81546;SDS011;71078;48.358;10.960;2023-08-20T03:11:42;8.43;;;3.90;;
81546;SDS011;71078;48.358;10.960;2023-08-20T03:14:03;8.65;;;4.53;;
81546;SDS011;71078;48.358;10.960;2023-08-20T03:16:24;9.70;;;4.63;;
81546;SDS011;71078;48.358;10.960;2023-08-20T03:18:45;9.82;;;3.83;;
81546;SDS011;71078;48.358;10.960;2023-08-20T03:21:05;9.30;;;4.35;;
81546;SDS011;71078;48.358;10.960;2023-08-20T03:23:27;9.20;;;4.07;;
81546;SDS011;71078;48.358;10.960;2023-08-20T03:25:48;8.48;;;4.65;;
81546;SDS011;71078;48.358;10.960;2023-08-20T03:28:09;10.13;;;5.13;;
81546;SDS011;71078;48.358;10.960;2023-08-20T03:30:29;12.70;;;5.30;;
81546;SDS011;71078;48.358;10.960;2023-08-20T03:32:50;9.30;;;5.15;;
81546;SDS011;71078;48.358;10.960;2023-08-20T03:35:10;9.63;;;5.05;;
81546;SDS011;71078;48.358;10.960;2023-08-20T03:37:31;9.32;;;4.82;;
81546;SDS011;71078;48.358;10.960;2023-08-20T03:39:52;11.18;;;5.45;;
81546;SDS011;71078;48.358;10.960;2023-08-20T03:42:13;9.70;;;4.78;;
81546;SDS011;71078;48.358;10.960;2023-08-20T03:44:33;9.13;;;5.00;;
81546;SDS011;71078;48.358;10.960;2023-08-20T03:46:54;8.63;;;4.97;;
81546;SDS011;71078;48.358;10.960;2023-08-20T03:49:14;10.75;;;4.90;;
81546;SDS011;71078;48.358;10.960;2023-08-20T03:51:35;10.13;;;4.68;;
81546;SDS011;71078;48.358;10.960;2023-08-20T03:53:55;9.52;;;4.90;;
81546;SDS011;71078;48.358;10.960;2023-08-20T03:56:16;9.00;;;4.85;;
81546;SDS011;71078;48.358;10.960;2023-08-20T03:58:36;8.65;;;5.05;;
81546;SDS011;71078;48.358;10.960;2023-08-20T04:00:57;9.88;;;4.93;;
81546;SDS011;71078;48.358;10.960;2023-08-20T04:03:18;9.13;;;5.03;;
81546;SDS011;71078;48.358;10.960;2023-08-20T04:05:39;9.85;;;5.03;;
81546;SDS011;71078;48.358;10.960;2023-08-20T04:08:00;9.30;;;5.22;;
81546;SDS011;71078;48.358;10.960;2023-08-20T04:10:20;10.40;;;5.10;;
81546;SDS011;71078;48.358;10.960;2023-08-20T04:12:41;8.80;;;5.28;;
81546;SDS011;71078;48.358;10.960;2023-08-20T04:15:02;11.13;;;5.18;;
81546;SDS011;71078;48.358;10.960;2023-08-20T04:17:23;10.15;;;5.50;;
81546;SDS011;71078;48.358;10.960;2023-08-20T04:19:43;9.98;;;5.45;;
81546;SDS011;71078;48.358;10.960;2023-08-20T04:22:04;9.98;;;4.97;;
81546;SDS011;71078;48.358;10.960;2023-08-20T04:24:25;10.38;;;5.22;;
81546;SDS011;71078;48.358;10.960;2023-08-20T04:26:45;9.90;;;5.80;;
81546;SDS011;71078;48.358;10.960;2023-08-20T04:29:06;10.80;;;5.28;;
81546;SDS011;71078;48.358;10.960;2023-08-20T04:31:27;11.35;;;4.97;;
81546;SDS011;71078;48.358;10.960;2023-08-20T04:33:48;10.13;;;5.30;;
81546;SDS011;71078;48.358;10.960;2023-08-20T04:36:08;9.90;;;4.75;;
81546;SDS011;71078;48.358;10.960;2023-08-20T04:38:29;12.23;;;4.57;;
81546;SDS011;71078;48.358;10.960;2023-08-20T04:40:50;10.05;;;5.13;;
81546;SDS011;71078;48.358;10.960;2023-08-20T04:43:10;9.32;;;4.80;;
81546;SDS011;71078;48.358;10.960;2023-08-20T04:45:30;11.13;;;6.25;;
81546;SDS011;71078;48.358;10.960;2023-08-20T04:47:51;10.55;;;5.03;;
81546;SDS011;71078;48.358;10.960;2023-08-20T04:50:12;10.43;;;5.72;;
81546;SDS011;71078;48.358;10.960;2023-08-20T04:52:33;9.60;;;4.95;;
81546;SDS011;71078;48.358;10.960;2023-08-20T04:54:55;10.38;;;6.07;;
81546;SDS011;71078;48.358;10.960;2023-08-20T04:57:15;7.88;;;4.72;;
81546;SDS011;71078;48.358;10.960;2023-08-20T04:59:37;10.00;;;4.65;;
81546;SDS011;71078;48.358;10.960;2023-08-20T05:01:57;10.57;;;5.45;;
81546;SDS011;71078;48.358;10.960;2023-08-20T05:04:18;10.15;;;5.22;;
81546;SDS011;71078;48.358;10.960;2023-08-20T05:06:38;10.18;;;4.95;;
81546;SDS011;71078;48.358;10.960;2023-08-20T05:08:59;9.50;;;5.13;;
81546;SDS011;71078;48.358;10.960;2023-08-20T05:11:20;11.90;;;5.50;;
81546;SDS011;71078;48.358;10.960;2023-08-20T05:13:41;11.80;;;5.43;;
81546;SDS011;71078;48.358;10.960;2023-08-20T05:16:01;9.57;;;4.35;;
81546;SDS011;71078;48.358;10.960;2023-08-20T05:18:22;12.05;;;5.22;;
81546;SDS011;71078;48.358;10.960;2023-08-20T05:20:43;10.70;;;5.32;;
81546;SDS011;71078;48.358;10.960;2023-08-20T05:23:03;9.65;;;4.95;;
81546;SDS011;71078;48.358;10.960;2023-08-20T05:25:26;12.10;;;4.65;;
81546;SDS011;71078;48.358;10.960;2023-08-20T05:27:47;9.45;;;5.00;;
81546;SDS011;71078;48.358;10.960;2023-08-20T05:30:07;12.40;;;5.20;;
81546;SDS011;71078;48.358;10.960;2023-08-20T05:32:31;10.77;;;5.55;;
81546;SDS011;71078;48.358;10.960;2023-08-20T05:34:51;10.10;;;4.88;;
81546;SDS011;71078;48.358;10.960;2023-08-20T05:37:12;10.85;;;5.10;;
81546;SDS011;71078;48.358;10.960;2023-08-20T05:39:37;8.77;;;4.40;;
81546;SDS011;71078;48.358;10.960;2023-08-20T05:42:02;9.90;;;4.65;;
81546;SDS011;71078;48.358;10.960;2023-08-20T05:44:23;9.02;;;5.05;;
81546;SDS011;71078;48.358;10.960;2023-08-20T05:46:43;8.13;;;4.75;;
81546;SDS011;71078;48.358;10.960;2023-08-20T05:49:04;9.80;;;4.72;;
81546;SDS011;71078;48.358;10.960;2023-08-20T05:51:25;9.25;;;5.07;;
81546;SDS011;71078;48.358;10.960;2023-08-20T05:53:45;9.15;;;4.85;;
81546;SDS011;71078;48.358;10.960;2023-08-20T05:56:06;11.63;;;5.40;;
81546;SDS011;71078;48.358;10.960;2023-08-20T05:58:27;9.13;;;5.25;;
81546;SDS011;71078;48.358;10.960;2023-08-20T06:00:47;11.25;;;4.95;;
81546;SDS011;71078;48.358;10.960;2023-08-20T06:03:08;11.38;;;4.93;;
81546;SDS011;71078;48.358;10.960;2023-08-20T06:05:29;8.70;;;4.70;;
81546;SDS011;71078;48.358;10.960;2023-08-20T06:07:50;10.20;;;4.57;;
81546;SDS011;71078;48.358;10.960;2023-08-20T06:10:11;11.85;;;5.43;;
81546;SDS011;71078;48.358;10.960;2023-08-20T06:12:32;10.25;;;4.95;;
81546;SDS011;71078;48.358;10.960;2023-08-20T06:14:53;11.38;;;5.10;;
81546;SDS011;71078;48.358;10.960;2023-08-20T06:17:14;9.10;;;5.57;;
81546;SDS011;71078;48.358;10.960;2023-08-20T06:19:35;9.15;;;5.00;;
81546;SDS011;71078;48.358;10.960;2023-08-20T06:21:58;12.43;;;5.43;;
81546;SDS011;71078;48.358;10.960;2023-08-20T06:24:19;8.90;;;5.03;;
81546;SDS011;71078;48.358;10.960;2023-08-20T06:26:39;9.13;;;4.32;;
81546;SDS011;71078;48.358;10.960;2023-08-20T06:29:00;9.57;;;5.15;;
81546;SDS011;71078;48.358;10.960;2023-08-20T06:31:21;11.02;;;5.28;;
81546;SDS011;71078;48.358;10.960;2023-08-20T06:33:41;8.73;;;4.85;;
81546;SDS011;71078;48.358;10.960;2023-08-20T06:36:02;8.32;;;5.05;;
81546;SDS011;71078;48.358;10.960;2023-08-20T06:38:23;7.97;;;5.38;;
81546;SDS011;71078;48.358;10.960;2023-08-20T06:40:44;8.30;;;4.55;;
81546;SDS011;71078;48.358;10.960;2023-08-20T06:43:04;8.30;;;4.60;;
81546;SDS011;71078;48.358;10.960;2023-08-20T06:45:25;9.23;;;4.88;;
81546;SDS011;71078;48.358;10.960;2023-08-20T06:47:45;9.15;;;4.32;;
81546;SDS011;71078;48.358;10.960;2023-08-20T06:50:06;9.88;;;5.20;;
81546;SDS011;71078;48.358;10.960;2023-08-20T06:52:27;7.53;;;4.70;;
81546;SDS011;71078;48.358;10.960;2023-08-20T06:54:47;9.07;;;4.80;;
81546;SDS011;71078;48.358;10.960;2023-08-20T06:57:08;11.07;;;5.13;;
81546;SDS011;71078;48.358;10.960;2023-08-20T06:59:28;9.25;;;4.90;;
81546;SDS011;71078;48.358;10.960;2023-08-20T07:01:49;10.95;;;5.10;;
81546;SDS011;71078;48.358;10.960;2023-08-20T07:04:09;8.15;;;4.68;;
81546;SDS011;71078;48.358;10.960;2023-08-20T07:06:30;9.25;;;5.68;;
81546;SDS011;71078;48.358;10.960;2023-08-20T07:08:51;8.82;;;5.40;;
81546;SDS011;71078;48.358;10.960;2023-08-20T07:11:12;9.25;;;5.28;;
81546;SDS011;71078;48.358;10.960;2023-08-20T07:13:32;9.95;;;5.25;;
81546;SDS011;71078;48.358;10.960;2023-08-20T07:15:53;10.00;;;4.65;;
81546;SDS011;71078;48.358;10.960;2023-08-20T07:18:15;9.70;;;5.85;;
81546;SDS011;71078;48.358;10.960;2023-08-20T07:20:36;7.85;;;4.57;;
81546;SDS011;71078;48.358;10.960;2023-08-20T07:22:56;9.52;;;5.20;;
81546;SDS011;71078;48.358;10.960;2023-08-20T07:25:18;10.30;;;5.80;;
81546;SDS011;71078;48.358;10.960;2023-08-20T07:27:39;10.20;;;4.82;;
81546;SDS011;71078;48.358;10.960;2023-08-20T07:29:59;9.85;;;4.50;;
81546;SDS011;71078;48.358;10.960;2023-08-20T07:32:20;8.52;;;4.75;;
81546;SDS011;71078;48.358;10.960;2023-08-20T07:34:40;8.32;;;5.13;;
81546;SDS011;71078;48.358;10.960;2023-08-20T07:37:01;9.75;;;5.13;;
81546;SDS011;71078;48.358;10.960;2023-08-20T07:39:22;8.90;;;4.63;;
81546;SDS011;71078;48.358;10.960;2023-08-20T07:41:43;7.95;;;5.03;;
81546;SDS011;71078;48.358;10.960;2023-08-20T07:44:04;9.23;;;5.35;;
81546;SDS011;71078;48.358;10.960;2023-08-20T07:46:25;8.27;;;5.25;;
81546;SDS011;71078;48.358;10.960;2023-08-20T07:48:45;10.23;;;5.13;;
81546;SDS011;71078;48.358;10.960;2023-08-20T07:51:06;8.70;;;4.70;;
81546;SDS011;71078;48.358;10.960;2023-08-20T07:53:28;9.93;;;4.72;;
81546;SDS011;71078;48.358;10.960;2023-08-20T07:55:50;8.55;;;4.78;;
81546;SDS011;71078;48.358;10.960;2023-08-20T07:58:11;9.50;;;4.57;;
81546;SDS011;71078;48.358;10.960;2023-08-20T08:00:32;9.48;;;5.03;;
81546;SDS011;71078;48.358;10.960;2023-08-20T08:02:52;10.10;;;4.40;;
81546;SDS011;71078;48.358;10.960;2023-08-20T08:05:13;11.15;;;4.57;;
81546;SDS011;71078;48.358;10.960;2023-08-20T08:07:34;10.43;;;4.75;;
81546;SDS011;71078;48.358;10.960;2023-08-20T08:09:55;10.40;;;4.63;;
81546;SDS011;71078;48.358;10.960;2023-08-20T08:12:16;9.90;;;4.55;;
81546;SDS011;71078;48.358;10.960;2023-08-20T08:14:36;9.88;;;5.00;;
81546;SDS011;71078;48.358;10.960;2023-08-20T08:16:57;9.77;;;4.63;;
81546;SDS011;71078;48.358;10.960;2023-08-20T08:19:18;7.82;;;4.55;;
81546;SDS011;71078;48.358;10.960;2023-08-20T08:21:39;9.18;;;4.53;;
81546;SDS011;71078;48.358;10.960;2023-08-20T08:23:59;8.65;;;3.97;;
81546;SDS011;71078;48.358;10.960;2023-08-20T08:26:20;8.20;;;4.25;;
81546;SDS011;71078;48.358;10.960;2023-08-20T08:28:41;9.45;;;4.57;;
81546;SDS011;71078;48.358;10.960;2023-08-20T08:31:01;8.27;;;3.92;;
81546;SDS011;71078;48.358;10.960;2023-08-20T08:33:24;9.27;;;4.13;;
81546;SDS011;71078;48.358;10.960;2023-08-20T08:35:45;7.22;;;3.88;;
81546;SDS011;71078;48.358;10.960;2023-08-20T08:38:05;9.02;;;4.63;;
81546;SDS011;71078;48.358;10.960;2023-08-20T08:40:28;8.35;;;4.28;;
81546;SDS011;71078;48.358;10.960;2023-08-20T08:42:50;9.23;;;3.90;;
81546;SDS011;71078;48.358;10.960;2023-08-20T08:45:11;7.10;;;4.03;;
81546;SDS011;71078;48.358;10.960;2023-08-20T08:47:32;9.10;;;4.03;;
81546;SDS011;71078;48.358;10.960;2023-08-20T08:49:56;9.32;;;4.57;;
81546;SDS011;71078;48.358;10.960;2023-08-20T08:52:17;7.10;;;3.63;;
81546;SDS011;71078;48.358;10.960;2023-08-20T08:54:39;9.43;;;3.83;;
81546;SDS011;71078;48.358;10.960;2023-08-20T08:57:00;9.13;;;4.38;;
81546;SDS011;71078;48.358;10.960;2023-08-20T08:59:21;8.07;;;4.05;;
81546;SDS011;71078;48.358;10.960;2023-08-20T09:01:42;7.05;;;3.70;;
81546;SDS011;71078;48.358;10.960;2023-08-20T09:04:02;9.50;;;4.45;;
81546;SDS011;71078;48.358;10.960;2023-08-20T09:06:23;8.55;;;4.25;;
81546;SDS011;71078;48.358;10.960;2023-08-20T09:08:44;8.77;;;4.28;;
81546;SDS011;71078;48.358;10.960;2023-08-20T09:11:04;9.27;;;4.10;;
81546;SDS011;71078;48.358;10.960;2023-08-20T09:13:35;9.93;;;4.05;;
81546;SDS011;71078;48.358;10.960;2023-08-20T09:16:02;8.10;;;4.05;;
81546;SDS011;71078;48.358;10.960;2023-08-20T09:18:27;9.27;;;3.42;;
81546;SDS011;71078;48.358;10.960;2023-08-20T09:20:48;11.10;;;3.92;;
81546;SDS011;71078;48.358;10.960;2023-08-20T09:23:11;7.72;;;3.83;;
81546;SDS011;71078;48.358;10.960;2023-08-20T09:25:35;9.05;;;4.10;;
81546;SDS011;71078;48.358;10.960;2023-08-20T09:27:56;9.48;;;4.10;;
81546;SDS011;71078;48.358;10.960;2023-08-20T09:30:19;7.20;;;3.63;;
81546;SDS011;71078;48.358;10.960;2023-08-20T09:32:43;8.57;;;3.25;;
81546;SDS011;71078;48.358;10.960;2023-08-20T09:35:04;8.48;;;3.53;;
81546;SDS011;71078;48.358;10.960;2023-08-20T09:37:24;8.48;;;3.85;;
81546;SDS011;71078;48.358;10.960;2023-08-20T09:39:45;10.10;;;3.80;;
81546;SDS011;71078;48.358;10.960;2023-08-20T09:42:06;6.43;;;3.13;;
81546;SDS011;71078;48.358;10.960;2023-08-20T09:44:29;7.00;;;3.50;;
81546;SDS011;71078;48.358;10.960;2023-08-20T09:46:54;7.18;;;3.15;;
81546;SDS011;71078;48.358;10.960;2023-08-20T09:49:15;6.80;;;2.83;;
81546;SDS011;71078;48.358;10.960;2023-08-20T09:51:38;7.15;;;2.72;;
81546;SDS011;71078;48.358;10.960;2023-08-20T09:54:07;6.82;;;3.20;;
81546;SDS011;71078;48.358;10.960;2023-08-20T09:56:40;9.35;;;3.03;;
81546;SDS011;71078;48.358;10.960;2023-08-20T09:59:03;6.55;;;2.88;;
81546;SDS011;71078;48.358;10.960;2023-08-20T10:01:24;7.03;;;3.03;;
81546;SDS011;71078;48.358;10.960;2023-08-20T10:03:46;6.45;;;2.80;;
81546;SDS011;71078;48.358;10.960;2023-08-20T10:06:07;7.10;;;2.78;;
81546;SDS011;71078;48.358;10.960;2023-08-20T10:08:28;7.28;;;2.92;;
81546;SDS011;71078;48.358;10.960;2023-08-20T10:10:48;6.85;;;2.65;;
81546;SDS011;71078;48.358;10.960;2023-08-20T10:13:09;6.22;;;2.53;;
81546;SDS011;71078;48.358;10.960;2023-08-20T10:15:30;7.57;;;2.75;;
81546;SDS011;71078;48.358;10.960;2023-08-20T10:17:52;6.32;;;2.35;;
81546;SDS011;71078;48.358;10.960;2023-08-20T10:20:13;6.60;;;2.67;;
81546;SDS011;71078;48.358;10.960;2023-08-20T10:22:36;8.90;;;2.88;;
81546;SDS011;71078;48.358;10.960;2023-08-20T10:27:32;9.20;;;2.83;;
81546;SDS011;71078;48.358;10.960;2023-08-20T10:29:55;9.98;;;3.00;;
81546;SDS011;71078;48.358;10.960;2023-08-20T10:32:16;6.40;;;2.78;;
81546;SDS011;71078;48.358;10.960;2023-08-20T10:34:37;6.43;;;2.55;;
81546;SDS011;71078;48.358;10.960;2023-08-20T10:37:03;7.63;;;2.63;;
81546;SDS011;71078;48.358;10.960;2023-08-20T10:39:29;7.15;;;3.53;;
81546;SDS011;71078;48.358;10.960;2023-08-20T10:42:02;8.50;;;3.10;;
81546;SDS011;71078;48.358;10.960;2023-08-20T10:44:29;9.07;;;3.22;;
81546;SDS011;71078;48.358;10.960;2023-08-20T10:47:21;7.50;;;2.88;;
81546;SDS011;71078;48.358;10.960;2023-08-20T10:49:42;6.63;;;3.08;;
81546;SDS011;71078;48.358;10.960;2023-08-20T10:52:03;6.63;;;2.85;;
81546;SDS011;71078;48.358;10.960;2023-08-20T10:54:26;6.20;;;2.58;;
81546;SDS011;71078;48.358;10.960;2023-08-20T10:56:47;8.40;;;3.40;;
81546;SDS011;71078;48.358;10.960;2023-08-20T10:59:15;8.32;;;2.80;;
81546;SDS011;71078;48.358;10.960;2023-08-20T11:01:37;6.70;;;2.53;;
81546;SDS011;71078;48.358;10.960;2023-08-20T11:03:59;6.55;;;2.55;;
81546;SDS011;71078;48.358;10.960;2023-08-20T11:06:25;7.97;;;2.83;;
81546;SDS011;71078;48.358;10.960;2023-08-20T11:08:52;6.43;;;2.33;;
81546;SDS011;71078;48.358;10.960;2023-08-20T11:11:14;7.22;;;2.42;;
81546;SDS011;71078;48.358;10.960;2023-08-20T11:13:35;6.22;;;2.38;;
81546;SDS011;71078;48.358;10.960;2023-08-20T11:15:57;7.03;;;2.60;;
81546;SDS011;71078;48.358;10.960;2023-08-20T11:18:17;6.43;;;3.00;;
81546;SDS011;71078;48.358;10.960;2023-08-20T11:20:38;5.75;;;2.25;;
81546;SDS011;71078;48.358;10.960;2023-08-20T11:22:59;7.70;;;2.83;;
81546;SDS011;71078;48.358;10.960;2023-08-20T11:25:20;6.78;;;3.08;;
81546;SDS011;71078;48.358;10.960;2023-08-20T11:27:44;5.68;;;2.53;;
81546;SDS011;71078;48.358;10.960;2023-08-20T11:30:05;5.70;;;2.38;;
81546;SDS011;71078;48.358;10.960;2023-08-20T11:32:26;8.52;;;3.35;;
81546;SDS011;71078;48.358;10.960;2023-08-20T11:34:47;7.57;;;3.10;;
81546;SDS011;71078;48.358;10.960;2023-08-20T11:37:08;6.07;;;2.42;;
81546;SDS011;71078;48.358;10.960;2023-08-20T11:39:29;6.43;;;2.50;;
81546;SDS011;71078;48.358;10.960;2023-08-20T11:41:49;7.88;;;2.70;;
81546;SDS011;71078;48.358;10.960;2023-08-20T11:44:10;6.00;;;2.55;;
81546;SDS011;71078;48.358;10.960;2023-08-20T11:46:31;5.63;;;2.30;;
81546;SDS011;71078;48.358;10.960;2023-08-20T11:49:08;6.25;;;2.28;;
81546;SDS011;71078;48.358;10.960;2023-08-20T11:51:36;7.20;;;2.83;;
81546;SDS011;71078;48.358;10.960;2023-08-20T11:54:01;6.78;;;2.30;;
81546;SDS011;71078;48.358;10.960;2023-08-20T11:56:24;7.90;;;2.42;;
81546;SDS011;71078;48.358;10.960;2023-08-20T11:58:49;6.18;;;2.33;;
81546;SDS011;71078;48.358;10.960;2023-08-20T12:01:13;6.03;;;2.40;;
81546;SDS011;71078;48.358;10.960;2023-08-20T12:03:34;7.13;;;2.40;;
81546;SDS011;71078;48.358;10.960;2023-08-20T12:05:55;7.38;;;2.42;;
81546;SDS011;71078;48.358;10.960;2023-08-20T12:08:16;5.35;;;1.60;;
81546;SDS011;71078;48.358;10.960;2023-08-20T12:10:41;5.93;;;2.63;;
81546;SDS011;71078;48.358;10.960;2023-08-20T12:13:02;5.95;;;2.58;;
81546;SDS011;71078;48.358;10.960;2023-08-20T12:15:24;6.30;;;2.33;;
81546;SDS011;71078;48.358;10.960;2023-08-20T12:17:55;5.97;;;2.53;;
81546;SDS011;71078;48.358;10.960;2023-08-20T12:20:17;6.85;;;2.60;;
81546;SDS011;71078;48.358;10.960;2023-08-20T12:22:38;6.15;;;2.55;;
81546;SDS011;71078;48.358;10.960;2023-08-20T12:24:59;6.35;;;2.22;;
81546;SDS011;71078;48.358;10.960;2023-08-20T12:27:20;6.05;;;2.00;;
81546;SDS011;71078;48.358;10.960;2023-08-20T12:29:40;7.43;;;2.50;;
81546;SDS011;71078;48.358;10.960;2023-08-20T12:32:01;6.45;;;2.10;;
81546;SDS011;71078;48.358;10.960;2023-08-20T12:34:24;8.68;;;2.35;;
81546;SDS011;71078;48.358;10.960;2023-08-20T12:36:46;5.72;;;3.05;;
81546;SDS011;71078;48.358;10.960;2023-08-20T12:39:06;7.43;;;2.53;;
81546;SDS011;71078;48.358;10.960;2023-08-20T12:41:27;6.20;;;2.45;;
81546;SDS011;71078;48.358;10.960;2023-08-20T12:43:47;6.95;;;2.67;;
81546;SDS011;71078;48.358;10.960;2023-08-20T12:46:08;6.97;;;2.53;;
81546;SDS011;71078;48.358;10.960;2023-08-20T12:48:29;7.13;;;2.42;;
81546;SDS011;71078;48.358;10.960;2023-08-20T12:50:50;6.68;;;2.53;;
81546;SDS011;71078;48.358;10.960;2023-08-20T12:53:10;5.63;;;2.20;;
81546;SDS011;71078;48.358;10.960;2023-08-20T12:55:33;6.35;;;2.42;;
81546;SDS011;71078;48.358;10.960;2023-08-20T12:57:54;6.18;;;2.65;;
81546;SDS011;71078;48.358;10.960;2023-08-20T13:00:18;6.93;;;2.97;;
81546;SDS011;71078;48.358;10.960;2023-08-20T13:02:39;8.40;;;3.15;;
81546;SDS011;71078;48.358;10.960;2023-08-20T13:05:00;6.80;;;2.75;;
81546;SDS011;71078;48.358;10.960;2023-08-20T13:07:21;7.20;;;2.72;;
81546;SDS011;71078;48.358;10.960;2023-08-20T13:09:42;7.07;;;2.92;;
81546;SDS011;71078;48.358;10.960;2023-08-20T13:12:03;7.85;;;2.90;;
81546;SDS011;71078;48.358;10.960;2023-08-20T13:14:29;6.68;;;2.85;;
81546;SDS011;71078;48.358;10.960;2023-08-20T13:16:50;8.73;;;3.05;;
81546;SDS011;71078;48.358;10.960;2023-08-20T13:19:11;6.93;;;2.47;;
81546;SDS011;71078;48.358;10.960;2023-08-20T13:21:32;5.93;;;2.65;;
81546;SDS011;71078;48.358;10.960;2023-08-20T13:23:53;6.50;;;2.35;;
81546;SDS011;71078;48.358;10.960;2023-08-20T13:26:13;7.03;;;2.80;;
81546;SDS011;71078;48.358;10.960;2023-08-20T13:28:34;6.65;;;2.42;;
81546;SDS011;71078;48.358;10.960;2023-08-20T13:30:54;5.95;;;2.83;;
81546;SDS011;71078;48.358;10.960;2023-08-20T13:33:15;8.13;;;2.80;;
81546;SDS011;71078;48.358;10.960;2023-08-20T13:35:36;6.97;;;2.60;;
81546;SDS011;71078;48.358;10.960;2023-08-20T13:37:57;7.70;;;3.13;;
81546;SDS011;71078;48.358;10.960;2023-08-20T13:40:17;6.45;;;3.03;;
81546;SDS011;71078;48.358;10.960;2023-08-20T13:42:38;7.05;;;3.00;;
81546;SDS011;71078;48.358;10.960;2023-08-20T13:44:59;7.78;;;2.45;;
81546;SDS011;71078;48.358;10.960;2023-08-20T13:47:20;6.38;;;2.05;;
81546;SDS011;71078;48.358;10.960;2023-08-20T13:49:40;7.93;;;2.45;;
81546;SDS011;71078;48.358;10.960;2023-08-20T13:52:01;5.90;;;2.35;;
81546;SDS011;71078;48.358;10.960;2023-08-20T13:54:21;7.47;;;2.42;;
81546;SDS011;71078;48.358;10.960;2023-08-20T13:56:42;7.28;;;2.67;;
81546;SDS011;71078;48.358;10.960;2023-08-20T13:59:03;5.97;;;2.25;;
81546;SDS011;71078;48.358;10.960;2023-08-20T14:01:24;6.50;;;2.20;;
81546;SDS011;71078;48.358;10.960;2023-08-20T14:03:44;6.15;;;2.40;;
81546;SDS011;71078;48.358;10.960;2023-08-20T14:06:05;6.05;;;2.17;;
81546;SDS011;71078;48.358;10.960;2023-08-20T14:08:26;7.70;;;2.33;;